createdAt,value
2018-09-14T00:01:35.318Z,21.02
2018-09-14T00:04:04.009Z,21.05
2018-09-14T00:06:32.739Z,20.98
2018-09-14T00:09:01.430Z,20.88
2018-09-14T00:11:30.181Z,20.94
2018-09-14T00:13:59.030Z,20.82
2018-09-14T00:16:27.828Z,20.72
2018-09-14T00:18:56.533Z,20.98
2018-09-14T00:21:25.304Z,20.95
2018-09-14T00:23:53.996Z,20.92
2018-09-14T00:26:22.676Z,20.83
2018-09-14T00:28:51.400Z,20.74
2018-09-14T00:31:20.118Z,20.70
2018-09-14T00:33:48.793Z,20.70
2018-09-14T00:36:17.497Z,20.77
2018-09-14T00:38:46.186Z,20.72
2018-09-14T00:41:14.902Z,20.72
2018-09-14T00:43:43.840Z,20.62
2018-09-14T00:46:12.581Z,20.62
2018-09-14T00:48:41.297Z,20.63
2018-09-14T00:51:10.143Z,20.70
2018-09-14T00:53:38.920Z,20.61
2018-09-14T00:56:07.612Z,20.63
2018-09-14T00:58:36.321Z,20.74
2018-09-14T01:01:05.028Z,20.79
2018-09-14T01:03:33.703Z,20.83
2018-09-14T01:06:02.421Z,20.71
2018-09-14T01:08:31.181Z,20.72
2018-09-14T01:10:59.890Z,20.73
2018-09-14T01:13:28.844Z,20.61
2018-09-14T01:15:57.502Z,20.66
2018-09-14T01:18:26.253Z,20.63
2018-09-14T01:20:54.874Z,20.64
2018-09-14T01:23:23.527Z,20.63
2018-09-14T01:25:52.151Z,20.47
2018-09-14T01:28:20.769Z,20.46
2018-09-14T01:30:49.661Z,20.44
2018-09-14T01:33:23.813Z,20.58
2018-09-14T01:35:57.698Z,20.37
2018-09-14T01:38:26.474Z,20.32
2018-09-14T01:40:55.111Z,20.41
2018-09-14T01:43:25.517Z,20.38
2018-09-14T01:45:54.133Z,20.36
2018-09-14T01:48:22.726Z,20.42
2018-09-14T01:50:51.401Z,20.35
2018-09-14T01:53:19.996Z,20.32
2018-09-14T01:55:48.651Z,20.30
2018-09-14T01:58:17.322Z,20.21
2018-09-14T02:00:46.003Z,20.19
2018-09-14T02:03:14.746Z,20.22
2018-09-14T02:05:43.382Z,20.19
2018-09-14T02:08:12.065Z,20.14
2018-09-14T02:10:40.723Z,20.06
2018-09-14T02:13:09.409Z,20.12
2018-09-14T02:15:38.109Z,19.94
2018-09-14T02:18:06.845Z,20.01
2018-09-14T02:20:35.535Z,20.10
2018-09-14T02:23:04.172Z,20.09
2018-09-14T02:25:32.815Z,20.10
2018-09-14T02:28:01.444Z,20.06
2018-09-14T02:30:30.158Z,19.96
2018-09-14T02:32:58.778Z,20.02
2018-09-14T02:35:27.401Z,20.03
2018-09-14T02:37:56.026Z,19.95
2018-09-14T02:40:24.616Z,19.85
2018-09-14T02:42:53.224Z,19.84
2018-09-14T02:45:21.834Z,19.83
2018-09-14T02:47:50.459Z,19.91
2018-09-14T02:50:19.078Z,19.86
2018-09-14T02:52:47.946Z,19.83
2018-09-14T02:55:16.630Z,19.81
2018-09-14T02:57:45.222Z,19.83
2018-09-14T03:00:13.881Z,19.81
2018-09-14T03:02:42.507Z,19.74
2018-09-14T03:05:11.144Z,19.88
2018-09-14T03:07:39.999Z,19.90
2018-09-14T03:10:08.679Z,19.90
2018-09-14T03:12:37.271Z,20.03
2018-09-14T03:15:05.904Z,19.91
2018-09-14T03:17:34.541Z,19.92
2018-09-14T03:20:03.188Z,19.89
2018-09-14T03:22:31.821Z,19.92
2018-09-14T03:25:00.485Z,19.92
2018-09-14T03:27:29.133Z,20.03
2018-09-14T03:29:57.785Z,19.97
2018-09-14T03:32:26.571Z,19.99
2018-09-14T03:34:55.493Z,20.00
2018-09-14T03:37:24.160Z,20.00
2018-09-14T03:39:52.879Z,20.03
2018-09-14T03:42:21.778Z,20.19
2018-09-14T03:44:50.459Z,20.07
2018-09-14T03:47:19.082Z,20.08
2018-09-14T03:49:47.719Z,20.04
2018-09-14T03:52:16.344Z,20.08
2018-09-14T03:54:45.027Z,20.05
2018-09-14T03:57:13.706Z,19.98
2018-09-14T03:59:42.309Z,20.06
2018-09-14T04:02:10.923Z,20.02
2018-09-14T04:04:39.608Z,20.11
2018-09-14T04:07:08.214Z,20.09
2018-09-14T04:09:36.845Z,20.10
2018-09-14T04:12:05.447Z,20.12
2018-09-14T04:14:34.110Z,20.09
2018-09-14T04:17:02.747Z,20.12
2018-09-14T04:19:31.383Z,20.21
2018-09-14T04:22:00.096Z,20.16
2018-09-14T04:24:28.698Z,20.20
2018-09-14T04:26:57.341Z,20.17
2018-09-14T04:29:25.932Z,20.19
2018-09-14T04:31:54.645Z,20.11
2018-09-14T04:34:23.298Z,20.22
2018-09-14T04:36:51.953Z,20.22
2018-09-14T04:39:20.623Z,20.17
2018-09-14T04:41:49.357Z,20.23
2018-09-14T04:44:18.047Z,20.23
2018-09-14T04:46:46.752Z,20.24
2018-09-14T04:49:15.419Z,20.27
2018-09-14T04:51:44.127Z,20.31
2018-09-14T04:54:12.818Z,20.22
2018-09-14T04:56:41.484Z,20.29
2018-09-14T04:59:10.171Z,20.34
2018-09-14T05:01:38.914Z,20.49
2018-09-14T05:04:07.629Z,20.43
2018-09-14T05:06:36.247Z,20.43
2018-09-14T05:09:06.748Z,20.54
2018-09-14T05:11:35.432Z,20.62
2018-09-14T05:14:04.138Z,20.80
2018-09-14T05:16:32.872Z,20.76
2018-09-14T05:19:01.689Z,20.80
2018-09-14T05:21:30.397Z,20.86
2018-09-14T05:23:59.228Z,20.88
2018-09-14T05:26:27.880Z,21.05
2018-09-14T05:28:56.561Z,20.95
2018-09-14T05:31:25.214Z,21.12
2018-09-14T05:33:53.866Z,21.20
2018-09-14T05:36:22.519Z,21.40
2018-09-14T05:38:51.218Z,21.53
2018-09-14T05:41:19.885Z,21.59
2018-09-14T05:43:48.578Z,21.51
2018-09-14T05:46:17.298Z,21.62
2018-09-14T05:48:46.010Z,21.59
2018-09-14T05:51:14.662Z,21.60
2018-09-14T05:53:43.308Z,21.68
2018-09-14T05:56:11.961Z,21.75
2018-09-14T05:58:40.582Z,21.69
2018-09-14T06:01:09.187Z,21.73
2018-09-14T06:03:37.848Z,21.67
2018-09-14T06:06:06.523Z,21.45
2018-09-14T06:08:35.120Z,21.56
2018-09-14T06:11:03.798Z,21.46
2018-09-14T06:13:32.429Z,21.47
2018-09-14T06:16:01.056Z,21.49
2018-09-14T06:18:29.708Z,21.32
2018-09-14T06:20:58.494Z,21.33
2018-09-14T06:23:27.148Z,21.56
2018-09-14T06:25:55.791Z,21.57
2018-09-14T06:28:24.581Z,21.49
2018-09-14T06:30:53.222Z,21.47
2018-09-14T06:33:21.854Z,21.30
2018-09-14T06:35:53.485Z,21.25
2018-09-14T06:38:22.220Z,21.28
2018-09-14T06:40:50.848Z,21.20
2018-09-14T06:43:19.473Z,21.22
2018-09-14T06:45:48.077Z,21.22
2018-09-14T06:48:16.738Z,21.22
2018-09-14T06:50:45.363Z,21.05
2018-09-14T06:53:14.009Z,21.24
2018-09-14T06:55:42.654Z,21.25
2018-09-14T06:58:11.266Z,21.25
2018-09-14T07:00:39.829Z,21.29
2018-09-14T07:03:08.438Z,21.39
2018-09-14T07:05:37.638Z,21.52
2018-09-14T07:08:06.272Z,21.65
2018-09-14T07:10:34.916Z,21.51
2018-09-14T07:13:03.598Z,21.50
2018-09-14T07:15:32.227Z,21.47
2018-09-14T07:18:00.920Z,21.65
2018-09-14T07:20:29.563Z,21.44
2018-09-14T07:22:58.275Z,21.17
2018-09-14T07:25:26.941Z,21.13
2018-09-14T07:27:55.595Z,20.98
2018-09-14T07:30:29.823Z,21.13
2018-09-14T07:32:58.530Z,21.09
2018-09-14T07:35:27.159Z,21.14
2018-09-14T07:37:56.560Z,21.18
2018-09-14T07:40:25.212Z,21.30
2018-09-14T07:42:53.884Z,21.23
2018-09-14T07:45:22.494Z,21.19
2018-09-14T07:47:51.131Z,21.27
2018-09-14T07:50:19.755Z,21.28
2018-09-14T07:52:48.362Z,21.02
2018-09-14T07:55:16.996Z,20.83
2018-09-14T07:57:45.679Z,20.99
2018-09-14T08:00:14.323Z,20.80
2018-09-14T08:02:42.940Z,20.90
2018-09-14T08:05:11.536Z,21.08
2018-09-14T08:07:40.202Z,21.17
2018-09-14T08:10:08.847Z,21.15
2018-09-14T08:12:37.507Z,21.19
2018-09-14T08:15:06.136Z,21.60
2018-09-14T08:17:34.807Z,21.69
2018-09-14T08:20:03.498Z,21.53
2018-09-14T08:22:32.163Z,21.67
2018-09-14T08:25:00.879Z,21.72
2018-09-14T08:27:29.612Z,21.87
2018-09-14T08:29:58.288Z,22.20
2018-09-14T08:32:27.057Z,22.18
2018-09-14T08:34:55.654Z,22.10
2018-09-14T08:37:24.328Z,22.36
2018-09-14T08:39:52.985Z,22.62
2018-09-14T08:42:21.590Z,22.83
2018-09-14T08:44:50.286Z,22.65
2018-09-14T08:47:19.095Z,22.63
2018-09-14T08:49:47.738Z,22.49
2018-09-14T08:52:16.401Z,22.39
2018-09-14T08:54:45.214Z,22.74
2018-09-14T08:57:13.843Z,22.47
2018-09-14T08:59:42.492Z,22.65
2018-09-14T09:02:11.161Z,22.56
2018-09-14T09:04:39.786Z,22.70
2018-09-14T09:07:08.646Z,22.54
2018-09-14T09:09:37.399Z,22.64
2018-09-14T09:12:06.091Z,22.62
2018-09-14T09:14:34.780Z,22.75
2018-09-14T09:17:03.540Z,22.39
2018-09-14T09:19:32.227Z,22.28
2018-09-14T09:22:00.899Z,22.31
2018-09-14T09:24:29.547Z,22.18
2018-09-14T09:26:58.159Z,22.31
2018-09-14T09:29:26.858Z,22.58
2018-09-14T09:31:55.502Z,22.31
2018-09-14T09:34:24.192Z,22.21
2018-09-14T09:36:52.813Z,22.11
2018-09-14T09:39:21.442Z,22.31
2018-09-14T09:41:50.096Z,22.56
2018-09-14T09:44:18.692Z,22.65
2018-09-14T09:46:47.347Z,22.69
2018-09-14T09:49:16.002Z,22.68
2018-09-14T09:51:44.622Z,22.79
2018-09-14T09:54:13.298Z,22.79
2018-09-14T09:56:42.091Z,22.75
2018-09-14T09:59:10.738Z,22.87
2018-09-14T10:01:47.509Z,22.85
2018-09-14T10:04:32.197Z,22.86
2018-09-14T10:07:00.833Z,23.17
2018-09-14T10:09:29.621Z,23.16
2018-09-14T10:11:58.277Z,23.27
2018-09-14T10:14:26.943Z,23.48
2018-09-14T10:16:55.587Z,23.73
2018-09-14T10:19:24.219Z,23.62
2018-09-14T10:21:52.935Z,23.53
2018-09-14T10:24:21.554Z,23.33
2018-09-14T10:26:50.283Z,23.47
2018-09-14T10:29:18.851Z,23.46
2018-09-14T10:31:47.484Z,23.50
2018-09-14T10:34:16.138Z,23.27
2018-09-14T10:36:44.772Z,23.25
2018-09-14T10:39:13.456Z,22.94
2018-09-14T10:41:42.071Z,22.98
2018-09-14T10:44:10.736Z,23.24
2018-09-14T10:46:39.350Z,23.26
2018-09-14T10:49:08.058Z,23.16
2018-09-14T10:51:36.715Z,23.24
2018-09-14T10:54:05.411Z,23.41
2018-09-14T10:56:34.131Z,23.58
2018-09-14T10:59:02.885Z,23.62
2018-09-14T11:01:31.494Z,23.98
2018-09-14T11:04:00.117Z,24.36
2018-09-14T11:06:28.812Z,24.24
2018-09-14T11:08:57.463Z,24.04
2018-09-14T11:11:26.135Z,23.94
2018-09-14T11:13:54.772Z,23.88
2018-09-14T11:16:23.408Z,23.93
2018-09-14T11:18:52.054Z,23.76
2018-09-14T11:21:20.695Z,23.74
2018-09-14T11:23:49.315Z,23.93
2018-09-14T11:26:17.916Z,24.34
2018-09-14T11:28:46.565Z,24.15
2018-09-14T11:31:15.266Z,24.28
2018-09-14T11:33:43.859Z,24.07
2018-09-14T11:36:12.569Z,24.15
2018-09-14T11:38:41.251Z,24.34
2018-09-14T11:41:09.860Z,24.47
2018-09-14T11:43:38.539Z,24.00
2018-09-14T11:46:07.287Z,23.99
2018-09-14T11:48:35.838Z,24.21
2018-09-14T11:51:04.522Z,24.34
2018-09-14T11:53:33.166Z,24.19
2018-09-14T11:56:01.833Z,23.82
2018-09-14T11:58:30.484Z,23.43
2018-09-14T12:00:59.200Z,23.31
2018-09-14T12:03:27.831Z,22.98
2018-09-14T12:05:56.440Z,23.18
2018-09-14T12:08:25.089Z,23.18
2018-09-14T12:10:53.756Z,23.11
2018-09-14T12:13:22.424Z,23.15
2018-09-14T12:15:51.079Z,23.21
2018-09-14T12:18:20.068Z,23.26
2018-09-14T12:20:48.705Z,23.08
2018-09-14T12:23:17.427Z,23.24
2018-09-14T12:25:46.054Z,23.39
2018-09-14T12:28:14.750Z,23.45
2018-09-14T12:30:43.354Z,23.47
2018-09-14T12:33:11.995Z,23.39
2018-09-14T12:35:40.671Z,23.30
2018-09-14T12:38:09.276Z,23.20
2018-09-14T12:40:43.142Z,23.14
2018-09-14T12:43:11.774Z,23.16
2018-09-14T12:45:40.481Z,23.03
2018-09-14T12:48:09.160Z,22.87
2018-09-14T12:50:37.781Z,22.77
2018-09-14T12:53:06.399Z,22.45
2018-09-14T12:55:35.006Z,22.51
2018-09-14T12:58:03.658Z,22.63
2018-09-14T13:00:32.299Z,22.50
2018-09-14T13:03:00.912Z,22.51
2018-09-14T13:05:29.524Z,22.44
2018-09-14T13:07:58.243Z,22.38
2018-09-14T13:10:26.881Z,22.34
2018-09-14T13:12:55.605Z,22.26
2018-09-14T13:15:24.397Z,22.31
2018-09-14T13:17:53.051Z,22.22
2018-09-14T13:20:21.709Z,22.18
2018-09-14T13:22:50.338Z,22.10
2018-09-14T13:25:18.979Z,21.99
2018-09-14T13:27:47.638Z,21.76
2018-09-14T13:30:16.278Z,21.66
2018-09-14T13:32:51.105Z,21.59
2018-09-14T13:35:20.882Z,21.52
2018-09-14T13:37:49.676Z,21.40
2018-09-14T13:40:18.996Z,21.37
2018-09-14T13:42:48.634Z,21.27
2018-09-14T13:45:17.370Z,21.21
2018-09-14T13:47:46.145Z,21.08
2018-09-14T13:50:14.891Z,20.89
2018-09-14T13:52:43.639Z,20.76
2018-09-14T13:55:12.262Z,20.70
2018-09-14T13:57:40.892Z,20.70
2018-09-14T14:00:09.576Z,20.63
2018-09-14T14:02:38.278Z,20.60
2018-09-14T14:05:06.928Z,20.59
2018-09-14T14:07:35.533Z,20.54
2018-09-14T14:10:04.265Z,20.45
2018-09-14T14:12:32.856Z,20.65
2018-09-14T14:15:01.521Z,20.49
2018-09-14T14:17:30.269Z,20.36
2018-09-14T14:19:59.020Z,20.39
2018-09-14T14:22:27.782Z,20.51
2018-09-14T14:24:56.451Z,20.58
2018-09-14T14:27:25.140Z,20.40
2018-09-14T14:29:53.819Z,20.36
2018-09-14T14:32:22.530Z,20.29
2018-09-14T14:34:51.314Z,20.34
2018-09-14T14:37:19.975Z,20.31
2018-09-14T14:39:48.662Z,20.33
2018-09-14T14:42:17.333Z,20.35
2018-09-14T14:44:46.003Z,20.38
2018-09-14T14:47:14.662Z,20.29
2018-09-14T14:49:43.342Z,20.22
2018-09-14T14:52:12.079Z,20.13
2018-09-14T14:54:40.733Z,20.10
2018-09-14T14:57:09.413Z,20.17
2018-09-14T14:59:38.157Z,20.31
2018-09-14T15:02:06.887Z,20.11
2018-09-14T15:04:35.527Z,20.04
2018-09-14T15:07:04.231Z,20.09
2018-09-14T15:09:32.866Z,20.11
2018-09-14T15:12:01.538Z,20.05
2018-09-14T15:14:30.214Z,20.00
2018-09-14T15:16:58.879Z,19.93
2018-09-14T15:19:27.681Z,19.89
2018-09-14T15:21:56.368Z,19.74
2018-09-14T15:24:25.043Z,19.68
2018-09-14T15:26:53.686Z,19.85
2018-09-14T15:29:22.341Z,19.72
2018-09-14T15:31:50.985Z,19.65
2018-09-14T15:34:19.647Z,19.56
2018-09-14T15:36:48.305Z,19.61
2018-09-14T15:39:16.962Z,19.61
2018-09-14T15:41:45.659Z,19.54
2018-09-14T15:44:14.346Z,19.47
2018-09-14T15:46:43.023Z,19.48
2018-09-14T15:49:11.712Z,19.48
2018-09-14T15:51:40.343Z,19.55
2018-09-14T15:54:09.118Z,19.61
2018-09-14T15:56:37.815Z,19.49
2018-09-14T15:59:06.574Z,19.47
2018-09-14T16:01:35.325Z,19.52
2018-09-14T16:04:04.090Z,19.37
2018-09-14T16:06:32.905Z,19.31
2018-09-14T16:09:01.760Z,19.29
2018-09-14T16:11:30.583Z,19.22
2018-09-14T16:13:59.301Z,19.28
2018-09-14T16:16:27.984Z,19.24
2018-09-14T16:18:56.745Z,19.19
2018-09-14T16:21:25.532Z,19.21
2018-09-14T16:23:54.374Z,19.12
2018-09-14T16:26:23.611Z,19.04
2018-09-14T16:28:52.368Z,19.10
2018-09-14T16:31:21.084Z,19.03
2018-09-14T16:33:49.857Z,19.12
2018-09-14T16:36:18.616Z,19.03
2018-09-14T16:38:47.395Z,19.08
2018-09-14T16:41:16.074Z,19.02
2018-09-14T16:43:44.783Z,19.04
2018-09-14T16:46:13.540Z,18.91
2018-09-14T16:48:42.283Z,18.82
2018-09-14T16:51:10.962Z,18.93
2018-09-14T16:53:39.667Z,18.90
2018-09-14T16:56:08.476Z,18.79
2018-09-14T16:58:37.237Z,18.91
2018-09-14T17:01:06.117Z,18.91
2018-09-14T17:03:34.816Z,18.87
2018-09-14T17:06:03.524Z,18.89
2018-09-14T17:08:32.250Z,18.83
2018-09-14T17:11:00.956Z,18.84
2018-09-14T17:13:29.703Z,18.79
2018-09-14T17:15:58.407Z,18.73
2018-09-14T17:18:27.131Z,18.79
2018-09-14T17:20:55.872Z,18.81
2018-09-14T17:23:24.590Z,18.86
2018-09-14T17:25:53.324Z,18.77
2018-09-14T17:28:22.031Z,18.76
2018-09-14T17:30:50.726Z,18.80
2018-09-14T17:33:19.430Z,18.83
2018-09-14T17:35:48.133Z,18.77
2018-09-14T17:38:16.836Z,18.73
2018-09-14T17:40:45.664Z,18.76
2018-09-14T17:43:14.358Z,18.77
2018-09-14T17:45:43.149Z,18.79
2018-09-14T17:48:11.927Z,18.79
2018-09-14T17:50:40.679Z,18.77
2018-09-14T17:53:09.379Z,18.66
2018-09-14T17:55:38.103Z,18.58
2018-09-14T17:58:06.796Z,18.66
2018-09-14T18:00:35.540Z,18.63
2018-09-14T18:03:04.246Z,18.56
2018-09-14T18:05:33.004Z,18.58
2018-09-14T18:08:01.710Z,18.53
2018-09-14T18:10:30.376Z,18.48
2018-09-14T18:12:59.019Z,18.49
2018-09-14T18:15:27.730Z,18.49
2018-09-14T18:17:56.486Z,18.52
2018-09-14T18:20:25.224Z,18.68
2018-09-14T18:22:53.931Z,18.78
2018-09-14T18:25:22.690Z,18.69
2018-09-14T18:27:51.711Z,18.64
2018-09-14T18:30:20.272Z,18.72
2018-09-14T18:32:49.030Z,18.75
2018-09-14T18:35:17.743Z,18.69
2018-09-14T18:37:46.594Z,18.74
2018-09-14T18:40:15.348Z,18.63
2018-09-14T18:42:44.117Z,18.71
2018-09-14T18:45:12.850Z,18.66
2018-09-14T18:47:41.550Z,18.62
2018-09-14T18:50:10.307Z,18.63
2018-09-14T18:52:38.994Z,18.55
2018-09-14T18:55:07.799Z,18.60
2018-09-14T18:57:36.509Z,18.75
2018-09-14T19:00:05.441Z,18.68
2018-09-14T19:02:34.245Z,18.74
2018-09-14T19:05:02.979Z,18.80
2018-09-14T19:07:31.680Z,18.77
2018-09-14T19:10:00.423Z,18.85
2018-09-14T19:12:29.200Z,18.81
2018-09-14T19:14:58.403Z,18.80
2018-09-14T19:17:27.121Z,18.80
2018-09-14T19:19:55.806Z,18.79
2018-09-14T19:22:24.486Z,18.69
2018-09-14T19:24:53.303Z,18.74
2018-09-14T19:27:22.037Z,18.68
2018-09-14T19:29:50.771Z,18.70
2018-09-14T19:32:19.557Z,18.71
2018-09-14T19:34:48.299Z,18.65
2018-09-14T19:37:17.048Z,18.57
2018-09-14T19:39:47.014Z,18.63
2018-09-14T19:42:15.770Z,18.56
2018-09-14T19:44:44.558Z,18.73
2018-09-14T19:47:13.364Z,18.79
2018-09-14T19:49:43.135Z,18.76
2018-09-14T19:52:12.006Z,18.74
2018-09-14T19:54:40.858Z,18.66
2018-09-14T19:57:09.701Z,18.72
2018-09-14T19:59:38.727Z,18.65
2018-09-14T20:02:07.542Z,18.73
2018-09-14T20:04:36.240Z,18.68
2018-09-14T20:07:05.020Z,18.68
2018-09-14T20:09:33.774Z,18.60
2018-09-14T20:12:02.495Z,18.62
2018-09-14T20:14:31.329Z,18.58
2018-09-14T20:17:00.061Z,18.61
2018-09-14T20:19:28.914Z,18.61
2018-09-14T20:21:57.688Z,18.64
2018-09-14T20:24:26.997Z,18.58
2018-09-14T20:26:55.690Z,18.69
2018-09-14T20:29:24.437Z,18.59
2018-09-14T20:31:53.607Z,18.57
2018-09-14T20:34:22.315Z,18.61
2018-09-14T20:36:51.076Z,18.53
2018-09-14T20:39:19.865Z,18.58
2018-09-14T20:41:48.642Z,18.53
2018-09-14T20:44:17.419Z,18.55
2018-09-14T20:46:46.141Z,18.58
2018-09-14T20:49:14.972Z,18.59
2018-09-14T20:51:43.760Z,18.53
2018-09-14T20:54:12.498Z,18.53
2018-09-14T20:56:41.212Z,18.53
2018-09-14T20:59:10.017Z,18.56
2018-09-14T21:01:38.766Z,18.53
2018-09-14T21:04:07.612Z,18.52
2018-09-14T21:06:36.287Z,18.60
2018-09-14T21:09:07.796Z,18.56
2018-09-14T21:11:36.925Z,18.45
2018-09-14T21:14:05.787Z,18.46
2018-09-14T21:16:34.883Z,18.32
2018-09-14T21:19:04.072Z,18.39
2018-09-14T21:21:32.813Z,18.32
2018-09-14T21:24:01.594Z,18.42
2018-09-14T21:26:30.511Z,18.41
2018-09-14T21:28:59.298Z,18.47
2018-09-14T21:31:28.111Z,18.30
2018-09-14T21:33:57.067Z,18.38
2018-09-14T21:36:25.882Z,18.24
2018-09-14T21:38:54.680Z,18.12
2018-09-14T21:41:23.467Z,18.09
2018-09-14T21:43:52.426Z,18.19
2018-09-14T21:46:21.369Z,18.18
2018-09-14T21:48:50.326Z,18.15
2018-09-14T21:51:19.087Z,18.10
2018-09-14T21:53:48.085Z,18.08
2018-09-14T21:56:16.821Z,17.99
2018-09-14T21:58:46.036Z,17.93
2018-09-14T22:01:18.883Z,17.95
2018-09-14T22:03:47.652Z,17.94
2018-09-14T22:06:16.380Z,17.97
2018-09-14T22:08:45.154Z,17.85
2018-09-14T22:11:13.989Z,17.88
2018-09-14T22:13:42.790Z,17.97
2018-09-14T22:16:11.576Z,17.82
2018-09-14T22:18:40.348Z,17.79
2018-09-14T22:21:09.162Z,17.69
2018-09-14T22:23:38.089Z,17.82
2018-09-14T22:26:07.076Z,17.64
2018-09-14T22:28:35.957Z,17.67
2018-09-14T22:31:04.759Z,17.81
2018-09-14T22:33:33.738Z,17.79
2018-09-14T22:36:02.511Z,17.88
2018-09-14T22:38:31.286Z,17.76
2018-09-14T22:41:00.019Z,17.68
2018-09-14T22:43:28.685Z,17.77
2018-09-14T22:45:57.459Z,17.75
2018-09-14T22:48:26.253Z,17.70
2018-09-14T22:50:55.025Z,17.83
2018-09-14T22:53:23.837Z,17.76
2018-09-14T22:55:52.888Z,17.81
2018-09-14T22:58:21.715Z,17.79
2018-09-14T23:00:55.675Z,17.88
2018-09-14T23:03:24.480Z,17.85
2018-09-14T23:05:53.226Z,17.79
2018-09-14T23:08:22.128Z,17.77
2018-09-14T23:10:50.895Z,17.66
2018-09-14T23:13:19.786Z,17.78
2018-09-14T23:15:53.298Z,17.72
2018-09-14T23:18:22.109Z,17.60
2018-09-14T23:20:51.029Z,17.48
2018-09-14T23:23:19.943Z,17.36
2018-09-14T23:25:49.291Z,17.33
2018-09-14T23:28:18.047Z,17.56
2018-09-14T23:30:46.806Z,17.47
2018-09-14T23:33:15.543Z,17.58
2018-09-14T23:35:44.274Z,17.47
2018-09-14T23:38:13.107Z,17.39
2018-09-14T23:40:41.878Z,17.24
2018-09-14T23:43:10.572Z,17.29
2018-09-14T23:45:39.320Z,17.37
2018-09-14T23:48:09.002Z,17.40
2018-09-14T23:50:37.741Z,17.47
2018-09-14T23:53:06.614Z,17.49
2018-09-14T23:55:35.340Z,17.63
2018-09-14T23:58:04.118Z,17.57
